Pulpca — PHMT — position and weather

sailwx.info

Track history (hours):
 
Tides and Currents Weather Stations Pressure Air Temp Water Temp Dewpoint Dewpoint Depression Visibility Wind Speed Wind Dir Waves Ship Positions

Pulpca

Last reported at 2017-Jan-18 07:33 UTC. Time now 2017-Jan-18 08:00 UTC.
Position N 60°29' E 026°57'.

Length 205 m; draft 7.5 m.

Type: Ship (hazmat cat A). MMSI: 245097000.

Date/timePositionNaut miles runAvg speedWind from/ knotsBaromVisibWave heightAir tempDewpointWater temp
2017-Jan-18 07:33N 60°29' E 026°57'5 4.9
2017-Jan-18 06:34N 60°24' E 026°54'1716.7
2017-Jan-18 05:34N 60°15' E 026°26'8220.1
2017-Jan-18 01:29N 59°40' E 023°58'2021.7
2017-Jan-18 00:33N 59°33' E 023°20'35320.7
2017-Jan-17 07:27N 55°35' E 015°13'1719.3
2017-Jan-17 06:34N 55°27' E 014°46'2120.4
2017-Jan-17 05:33N 55°13' E 014°21'2019.9
2017-Jan-17 04:32N 55°11' E 013°45'2620.4
2017-Jan-17 03:16N 55°14' E 013°00'1318.9
2017-Jan-17 02:34N 55°18' E 012°38'1515.5
2017-Jan-17 01:33N 55°33' E 012°42'10 9.6
2017-Jan-17 00:33N 55°43' E 012°41'1716.8
2017-Jan-16 23:33N 55°60' E 012°40'2018.7
2017-Jan-16 22:28N 56°18' E 012°23'4520.7
2017-Jan-16 20:19N 56°57' E 011°45'1621.0
2017-Jan-16 19:33N 57°12' E 011°33'2120.9
2017-Jan-16 18:33N 57°31' E 011°17'2120.9
2017-Jan-16 17:33N 57°44' E 010°48'34219.9
2017-Jan-16 00:23N 53°15' E 004°34'1619.6
2017-Jan-15 23:33N 53°01' E 004°22'1919.2
2017-Jan-15 22:33N 52°44' E 004°06'1919.3
2017-Jan-15 21:33N 52°30' E 003°45'4319.4
2017-Jan-15 19:21N 51°51' E 003°18'1721.3
2017-Jan-15 18:33N 51°35' E 003°10'1010.3
2017-Jan-15 17:33N 51°25' E 003°13'1817.5
2017-Jan-15 16:33N 51°26' E 003°41'1212.1
2017-Jan-15 15:33N 51°26' E 004°01'1111.0
2017-Jan-15 14:34N 51°21' E 004°16'4 3.9
2017-Jan-15 13:33N 51°17' E 004°15'2 1.7
2017-Jan-15 12:33N 51°15' E 004°14'0 0.0
2017-Jan-15 11:31N 51°15' E 004°14'0 0.0
2017-Jan-15 10:31N 51°15' E 004°14'0 0.0
2017-Jan-15 09:31N 51°15' E 004°14'0 0.0
2017-Jan-15 08:31N 51°15' E 004°14'0 0.0
2017-Jan-15 07:31N 51°15' E 004°14'0 0.0
2017-Jan-15 06:31N 51°15' E 004°14'0 0.0
2017-Jan-15 05:31N 51°15' E 004°14'0 0.0
2017-Jan-15 04:31N 51°15' E 004°14'0 0.0
2017-Jan-15 03:31N 51°15' E 004°14'0 0.0
2017-Jan-15 02:34N 51°15' E 004°14'2 1.9
2017-Jan-15 01:34N 51°16' E 004°17'2 2.0
2017-Jan-15 00:33N 51°17' E 004°19'9 9.2
2017-Jan-14 23:33N 51°22' E 004°07'1313.4
2017-Jan-14 22:33N 51°22' E 003°45'1313.5
2017-Jan-14 21:33N 51°25' E 003°24'1515.3
2017-Jan-14 20:33N 51°27' E 002°60'1818.1
2017-Jan-14 19:33N 51°43' E 003°11'21816.6
2017-Jan-14 06:26N 54°01' E 007°52'1719.9
2017-Jan-14 05:33N 53°60' E 008°22'1817.6
2017-Jan-14 04:34N 53°50' E 008°47'1312.9
2017-Jan-14 03:34N 53°54' E 009°09'18 4.4
2017-Jan-13 23:30N 54°09' E 009°23'41 5.1
2017-Jan-13 15:33N 54°31' E 010°22'1212.0
2017-Jan-13 14:33N 54°35' E 010°42'1111.4
2017-Jan-13 13:33N 54°36' E 011°01'1110.8
2017-Jan-13 12:33N 54°34' E 011°20'1111.3
2017-Jan-13 11:33N 54°29' E 011°37'1111.2
2017-Jan-13 10:32N 54°26' E 011°56'1010.0
2017-Jan-13 09:33N 54°29' E 012°12'1110.6
2017-Jan-13 08:33N 54°38' E 012°20'5211.5
2017-Jan-13 04:03N 55°00' E 013°42'611.6
2017-Jan-13 03:31N 55°02' E 013°52'1110.9
2017-Jan-13 02:33N 55°08' E 014°07'1111.3
2017-Jan-13 01:33N 55°16' E 014°21'1211.6
2017-Jan-13 00:33N 55°25' E 014°33'1111.4
2017-Jan-12 23:33N 55°31' E 014°50'1211.8
2017-Jan-12 22:33N 55°37' E 015°09'35111.7
2017-Jan-11 16:33N 59°41' E 023°01'7 1.0
2017-Jan-11 09:33N 59°48' E 022°59'7 7.3
2017-Jan-11 08:33N 59°41' E 023°02'3615.6
2017-Jan-11 06:14N 59°31' E 021°53'1318.7
2017-Jan-11 05:33N 59°32' E 021°28'5719.1
2017-Jan-11 02:33N 59°48' E 019°39'2120.8
2017-Jan-11 01:33N 60°04' E 019°12'3 0.1
2017-Jan-09 23:32N 60°04' E 019°17'2221.4
2017-Jan-09 22:31N 59°47' E 019°46'4819.7
2017-Jan-09 20:06N 59°33' E 021°17'1120.3
2017-Jan-09 19:33N 59°32' E 021°39'4019.8
2017-Jan-09 17:31N 59°39' E 022°57'10 1.2
2017-Jan-09 09:25N 59°49' E 022°56'1315.0
2017-Jan-09 08:33N 59°36' E 022°56'34320.2
2017-Jan-08 15:33N 55°36' E 015°19'2020.4
2017-Jan-08 14:33N 55°27' E 014°47'2020.3
2017-Jan-08 13:33N 55°12' E 014°23'2019.5
2017-Jan-08 12:33N 55°11' E 013°49'2920.3
2017-Jan-08 11:07N 55°14' E 012°58'1119.7
2017-Jan-08 10:33N 55°18' E 012°40'1515.5
2017-Jan-08 09:33N 55°33' E 012°42'10 9.6
2017-Jan-08 08:33N 55°43' E 012°41'  
Track history (hours):
 
Tides and Currents Weather Stations Pressure Air Temp Water Temp Dewpoint Dewpoint Depression Visibility Wind Speed Wind Dir Waves Ship Positions

Pulpca

Last reported at 2017-Jan-18 07:33 UTC. Time now 2017-Jan-18 08:00 UTC.
Position N 60°29' E 026°57'.

Length 205 m; draft 7.5 m.

Type: Ship (hazmat cat A). MMSI: 245097000.

Date/timePositionNaut miles runAvg speedWind from/ knotsBaromVisibWave heightAir tempDewpointWater temp
2017-Jan-18 07:33N 60°29' E 026°57'5 4.9
2017-Jan-18 06:34N 60°24' E 026°54'1716.7
2017-Jan-18 05:34N 60°15' E 026°26'8220.1
2017-Jan-18 01:29N 59°40' E 023°58'2021.7
2017-Jan-18 00:33N 59°33' E 023°20'35320.7
2017-Jan-17 07:27N 55°35' E 015°13'1719.3
2017-Jan-17 06:34N 55°27' E 014°46'2120.4
2017-Jan-17 05:33N 55°13' E 014°21'2019.9
2017-Jan-17 04:32N 55°11' E 013°45'2620.4
2017-Jan-17 03:16N 55°14' E 013°00'1318.9
2017-Jan-17 02:34N 55°18' E 012°38'1515.5
2017-Jan-17 01:33N 55°33' E 012°42'10 9.6
2017-Jan-17 00:33N 55°43' E 012°41'1716.8
2017-Jan-16 23:33N 55°60' E 012°40'2018.7
2017-Jan-16 22:28N 56°18' E 012°23'4520.7
2017-Jan-16 20:19N 56°57' E 011°45'1621.0
2017-Jan-16 19:33N 57°12' E 011°33'2120.9
2017-Jan-16 18:33N 57°31' E 011°17'2120.9
2017-Jan-16 17:33N 57°44' E 010°48'34219.9
2017-Jan-16 00:23N 53°15' E 004°34'1619.6
2017-Jan-15 23:33N 53°01' E 004°22'1919.2
2017-Jan-15 22:33N 52°44' E 004°06'1919.3
2017-Jan-15 21:33N 52°30' E 003°45'4319.4
2017-Jan-15 19:21N 51°51' E 003°18'1721.3
2017-Jan-15 18:33N 51°35' E 003°10'1010.3
2017-Jan-15 17:33N 51°25' E 003°13'1817.5
2017-Jan-15 16:33N 51°26' E 003°41'1212.1
2017-Jan-15 15:33N 51°26' E 004°01'1111.0
2017-Jan-15 14:34N 51°21' E 004°16'4 3.9
2017-Jan-15 13:33N 51°17' E 004°15'2 1.7
2017-Jan-15 12:33N 51°15' E 004°14'0 0.0
2017-Jan-15 11:31N 51°15' E 004°14'0 0.0
2017-Jan-15 10:31N 51°15' E 004°14'0 0.0
2017-Jan-15 09:31N 51°15' E 004°14'0 0.0
2017-Jan-15 08:31N 51°15' E 004°14'0 0.0
2017-Jan-15 07:31N 51°15' E 004°14'0 0.0
2017-Jan-15 06:31N 51°15' E 004°14'0 0.0
2017-Jan-15 05:31N 51°15' E 004°14'0 0.0
2017-Jan-15 04:31N 51°15' E 004°14'0 0.0
2017-Jan-15 03:31N 51°15' E 004°14'0 0.0
2017-Jan-15 02:34N 51°15' E 004°14'2 1.9
2017-Jan-15 01:34N 51°16' E 004°17'2 2.0
2017-Jan-15 00:33N 51°17' E 004°19'9 9.2
2017-Jan-14 23:33N 51°22' E 004°07'1313.4
2017-Jan-14 22:33N 51°22' E 003°45'1313.5
2017-Jan-14 21:33N 51°25' E 003°24'1515.3
2017-Jan-14 20:33N 51°27' E 002°60'1818.1
2017-Jan-14 19:33N 51°43' E 003°11'21816.6
2017-Jan-14 06:26N 54°01' E 007°52'1719.9
2017-Jan-14 05:33N 53°60' E 008°22'1817.6
2017-Jan-14 04:34N 53°50' E 008°47'1312.9
2017-Jan-14 03:34N 53°54' E 009°09'18 4.4
2017-Jan-13 23:30N 54°09' E 009°23'41 5.1
2017-Jan-13 15:33N 54°31' E 010°22'1212.0
2017-Jan-13 14:33N 54°35' E 010°42'1111.4
2017-Jan-13 13:33N 54°36' E 011°01'1110.8
2017-Jan-13 12:33N 54°34' E 011°20'1111.3
2017-Jan-13 11:33N 54°29' E 011°37'1111.2
2017-Jan-13 10:32N 54°26' E 011°56'1010.0
2017-Jan-13 09:33N 54°29' E 012°12'1110.6
2017-Jan-13 08:33N 54°38' E 012°20'5211.5
2017-Jan-13 04:03N 55°00' E 013°42'611.6
2017-Jan-13 03:31N 55°02' E 013°52'1110.9
2017-Jan-13 02:33N 55°08' E 014°07'1111.3
2017-Jan-13 01:33N 55°16' E 014°21'1211.6
2017-Jan-13 00:33N 55°25' E 014°33'1111.4
2017-Jan-12 23:33N 55°31' E 014°50'1211.8
2017-Jan-12 22:33N 55°37' E 015°09'35111.7
2017-Jan-11 16:33N 59°41' E 023°01'7 1.0
2017-Jan-11 09:33N 59°48' E 022°59'7 7.3
2017-Jan-11 08:33N 59°41' E 023°02'3615.6
2017-Jan-11 06:14N 59°31' E 021°53'1318.7
2017-Jan-11 05:33N 59°32' E 021°28'5719.1
2017-Jan-11 02:33N 59°48' E 019°39'2120.8
2017-Jan-11 01:33N 60°04' E 019°12'3 0.1
2017-Jan-09 23:32N 60°04' E 019°17'2221.4
2017-Jan-09 22:31N 59°47' E 019°46'4819.7
2017-Jan-09 20:06N 59°33' E 021°17'1120.3
2017-Jan-09 19:33N 59°32' E 021°39'4019.8
2017-Jan-09 17:31N 59°39' E 022°57'10 1.2
2017-Jan-09 09:25N 59°49' E 022°56'1315.0
2017-Jan-09 08:33N 59°36' E 022°56'34320.2
2017-Jan-08 15:33N 55°36' E 015°19'2020.4
2017-Jan-08 14:33N 55°27' E 014°47'2020.3
2017-Jan-08 13:33N 55°12' E 014°23'2019.5
2017-Jan-08 12:33N 55°11' E 013°49'2920.3
2017-Jan-08 11:07N 55°14' E 012°58'1119.7
2017-Jan-08 10:33N 55°18' E 012°40'1515.5
2017-Jan-08 09:33N 55°33' E 012°42'10 9.6
2017-Jan-08 08:33N 55°43' E 012°41'  

Dump ship's entire track history